Bee Bayou, Louisiana
Current Conditions -  °F | °C
As of 3:53 PM on Wednesday 28 Jan 2015 (Local Time) from KMLU Reporting Station
Clear Clear  
Wind Chill: 71°   Ceiling: Unl
Heat Index: 71°   Visibility: 10mi
Dew Point: 42°   Wind: 7mph
Humidity: 35%   Direction: NA
Pressure: 30.14"   Gusts: NA
Location:  32.4475°N, 91.7992°W
Report Text: KMLU 282153Z VRB06KT 10SM CLR 22/06 A3014 RMK AO2 SLP205 T02170056
Loading
Personal Weather Stations






























Interactive Weather Map New forecast layout! Learn more

10-Day Weather Forecast

Advertisements
Track Severe Weather on mobile